createdAt,value
2018-07-28T21:15:47.430Z,26.35
2018-07-28T21:18:17.102Z,71.17
2018-07-28T21:20:46.378Z,33.60
2018-07-28T21:23:15.807Z,22.10
2018-07-28T21:25:45.062Z,25.48
2018-07-28T21:28:14.251Z,23.07
2018-07-28T21:30:43.466Z,22.05
2018-07-28T21:33:12.654Z,20.25
2018-07-28T21:35:41.702Z,18.30
2018-07-28T21:38:10.834Z,20.02
2018-07-28T21:40:40.035Z,16.87
2018-07-28T21:43:09.152Z,16.62
2018-07-28T21:45:38.264Z,16.52
2018-07-28T21:48:07.408Z,15.45
2018-07-28T21:50:36.542Z,15.00
2018-07-28T21:53:06.142Z,15.28
2018-07-28T21:55:35.255Z,12.40
2018-07-28T21:58:04.426Z,13.58
2018-07-28T22:00:39.186Z,10.00
2018-07-28T22:03:08.671Z,9.73
2018-07-28T22:05:37.954Z,10.40
2018-07-28T22:08:07.240Z,11.40
2018-07-28T22:10:36.398Z,11.08
2018-07-28T22:13:05.730Z,10.10
2018-07-28T22:15:34.641Z,9.63
2018-07-28T22:18:03.783Z,9.58
2018-07-28T22:20:32.900Z,11.30
2018-07-28T22:23:02.345Z,9.60
2018-07-28T22:25:31.451Z,8.68
2018-07-28T22:28:00.699Z,11.97
2018-07-28T22:30:29.906Z,9.35
2018-07-28T22:32:58.785Z,10.50
2018-07-28T22:35:28.128Z,8.60
2018-07-28T22:37:57.231Z,9.35
2018-07-28T22:40:26.698Z,9.10
2018-07-28T22:42:55.804Z,9.85
2018-07-28T22:45:25.172Z,9.18
2018-07-28T22:47:54.374Z,10.82
2018-07-28T22:50:23.553Z,9.95
2018-07-28T22:52:52.646Z,9.78
2018-07-28T22:55:21.965Z,11.03
2018-07-28T22:57:51.174Z,10.15
2018-07-28T23:00:20.375Z,8.90
2018-07-28T23:02:49.500Z,10.50
2018-07-28T23:05:18.610Z,9.60
2018-07-28T23:07:47.835Z,8.45
2018-07-28T23:10:17.017Z,8.50
2018-07-28T23:12:46.288Z,8.15
2018-07-28T23:15:15.426Z,7.75
2018-07-28T23:17:44.750Z,7.75
2018-07-28T23:20:14.031Z,7.85
2018-07-28T23:22:43.157Z,7.25
2018-07-28T23:25:12.628Z,8.53
2018-07-28T23:27:41.883Z,8.93
2018-07-28T23:30:11.974Z,7.12
2018-07-28T23:32:41.167Z,7.40
2018-07-28T23:35:10.471Z,7.55
2018-07-28T23:37:39.571Z,9.65
2018-07-28T23:40:08.818Z,7.28
2018-07-28T23:42:37.929Z,7.90
2018-07-28T23:45:07.198Z,7.40
2018-07-28T23:47:36.468Z,7.03
2018-07-28T23:50:05.865Z,7.08
2018-07-28T23:52:35.006Z,6.97
2018-07-28T23:55:04.173Z,6.35
2018-07-28T23:57:33.292Z,6.60
